Norbank — PGIS — position and weather

sailwx.info

Track history (hours):
 
Tides and Currents Weather Stations Pressure Air Temp Water Temp Dewpoint Dewpoint Depression Visibility Wind Speed Wind Dir Waves Ship Positions

Norbank

Operator: P & O Ferries

Last reported at 2014-Jul-28 03:29 UTC. Time now 2014-Jul-28 14:26 UTC.
Position N 53°32' W 003°10'.

Length 167 m; draft 5.6 m.

Type: Ship (hazmat cat A). MMSI: 246213000.

Date/timePositionNaut miles runAvg speedWind from/ knotsBaromVisibWave heightAir tempDewpointWater temp
2014-Jul-28 03:29N 53°32' W 003°10'1511.1
2014-Jul-28 02:07N 53°31' W 003°36'610.2
2014-Jul-28 01:33N 53°32' W 003°45'3 0.1
2014-Jul-26 22:32N 53°33' W 003°49'1514.9
2014-Jul-26 21:32N 53°32' W 003°23'14 2.2
2014-Jul-26 15:11N 53°27' W 003°01'6 9.5
2014-Jul-26 14:34N 53°31' W 003°07'1716.8
2014-Jul-26 13:32N 53°31' W 003°36'1818.3
2014-Jul-26 12:32N 53°34' W 004°07'65 7.0
2014-Jul-26 03:09N 53°23' W 005°55'1016.5
2014-Jul-26 02:33N 53°25' W 005°39'3617.2
2014-Jul-26 00:25N 53°33' W 004°39'1618.0
2014-Jul-25 23:33N 53°33' W 004°13'1716.7
2014-Jul-25 22:33N 53°33' W 003°45'1615.7
2014-Jul-25 21:33N 53°32' W 003°18'11 1.8
2014-Jul-25 15:06N 53°27' W 003°01'713.4
2014-Jul-25 14:33N 53°32' W 003°11'1818.5
2014-Jul-25 13:33N 53°31' W 003°42'1919.2
2014-Jul-25 12:33N 53°34' W 004°14'2419.3
2014-Jul-25 11:18N 53°34' W 004°54'1520.6
2014-Jul-25 10:33N 53°30' W 005°19'2121.2
2014-Jul-25 09:33N 53°23' W 005°53'8 1.4
2014-Jul-25 03:33N 53°20' W 006°06'1615.7
2014-Jul-25 02:33N 53°25' W 005°41'1616.2
2014-Jul-25 01:33N 53°29' W 005°15'2117.0
2014-Jul-25 00:17N 53°33' W 004°39'1318.7
2014-Jul-24 23:34N 53°33' W 004°17'1717.1
2014-Jul-24 22:33N 53°33' W 003°48'1616.1
2014-Jul-24 21:33N 53°32' W 003°21'13 6.0
2014-Jul-24 19:28N 53°27' W 003°01'0 0.0
2014-Jul-24 18:30N 53°27' W 003°01'0 0.0
2014-Jul-24 17:23N 53°27' W 003°01'7 2.5
2014-Jul-24 14:32N 53°32' W 003°11'1616.0
2014-Jul-24 13:33N 53°31' W 003°37'1817.7
2014-Jul-24 12:33N 53°33' W 004°07'3517.4
2014-Jul-24 10:33N 53°32' W 005°05'1919.2
2014-Jul-24 09:32N 53°26' W 005°36'1 0.2
2014-Jul-24 02:30N 53°25' W 005°38'5920.1
2014-Jul-23 23:33N 53°33' W 003°59'2020.0
2014-Jul-23 22:33N 53°32' W 003°26'9 1.2
2014-Jul-23 14:33N 53°32' W 003°10'1716.7
2014-Jul-23 13:34N 53°31' W 003°38'1817.8
2014-Jul-23 12:34N 53°34' W 004°08'1717.1
2014-Jul-23 11:33N 53°36' W 004°37'2118.0
2014-Jul-23 10:23N 53°31' W 005°11'2019.3
2014-Jul-23 09:21N 53°25' W 005°43'9 1.5
2014-Jul-23 03:15N 53°22' W 005°58'1114.6
2014-Jul-23 02:32N 53°25' W 005°40'1515.1
2014-Jul-23 01:34N 53°29' W 005°17'2217.4
2014-Jul-23 00:17N 53°33' W 004°40'2018.1
2014-Jul-22 23:09N 53°33' W 004°06'2817.1
2014-Jul-22 21:32N 53°32' W 003°19'12 2.2
2014-Jul-22 16:17N 53°27' W 003°01'0 0.6
2014-Jul-22 15:32N 53°27' W 003°01'6 5.6
2014-Jul-22 14:31N 53°31' W 003°07'1515.3
2014-Jul-22 13:33N 53°31' W 003°32'1616.4
2014-Jul-22 12:34N 53°33' W 003°59'1817.9
2014-Jul-22 11:34N 53°36' W 004°29'17 1.7
2014-Jul-22 01:16N 53°31' W 004°57'1616.7
2014-Jul-22 00:20N 53°34' W 004°31'1617.3
2014-Jul-21 23:23N 53°34' W 004°03'1417.2
2014-Jul-21 22:33N 53°33' W 003°40'1717.1
2014-Jul-21 21:33N 53°32' W 003°11'7 7.4
2014-Jul-21 20:33N 53°27' W 003°01'0 1.7
2014-Jul-21 20:18N 53°27' W 003°01'0 0.0
2014-Jul-21 19:33N 53°27' W 003°01'0 0.0
2014-Jul-21 18:32N 53°27' W 003°01'0 0.0
2014-Jul-21 17:26N 53°27' W 003°01'0 0.0
2014-Jul-21 16:28N 53°27' W 003°01'0 0.0
2014-Jul-21 13:21N 53°27' W 003°01'0 0.0
2014-Jul-21 11:26N 53°27' W 003°01'0 0.0
2014-Jul-21 10:17N 53°27' W 003°01'0 0.0
2014-Jul-21 09:31N 53°27' W 003°01'6 0.8
2014-Jul-21 02:27N 53°32' W 003°08'1718.8
2014-Jul-21 01:33N 53°31' W 003°36'1817.9
2014-Jul-21 00:33N 53°34' W 004°06'8 0.3
2014-Jul-19 23:33N 53°34' W 004°19'1616.4
2014-Jul-19 22:33N 53°34' W 003°51'1716.8
2014-Jul-19 21:34N 53°32' W 003°23'14 9.9
2014-Jul-19 20:08N 53°27' W 003°01'0 0.3
2014-Jul-19 18:24N 53°27' W 003°01'6 1.5
2014-Jul-19 14:25N 53°32' W 003°08'1720.2
2014-Jul-19 13:33N 53°31' W 003°37'1918.8
2014-Jul-19 12:33N 53°34' W 004°08'12 1.0
2014-Jul-19 00:08N 53°34' W 004°29'1514.6
2014-Jul-18 23:06N 53°33' W 004°03'915.9
2014-Jul-18 22:30N 53°33' W 003°47'1516.0
2014-Jul-18 21:33N 53°32' W 003°22'7 1.1
2014-Jul-18 14:33N 53°32' W 003°10'2020.0
2014-Jul-18 13:33N 53°31' W 003°43'1918.8
2014-Jul-18 12:33N 53°34' W 004°14'  
Track history (hours):
 
Tides and Currents Weather Stations Pressure Air Temp Water Temp Dewpoint Dewpoint Depression Visibility Wind Speed Wind Dir Waves Ship Positions

Norbank

Operator: P & O Ferries

Last reported at 2014-Jul-28 03:29 UTC. Time now 2014-Jul-28 14:26 UTC.
Position N 53°32' W 003°10'.

Length 167 m; draft 5.6 m.

Type: Ship (hazmat cat A). MMSI: 246213000.

Date/timePositionNaut miles runAvg speedWind from/ knotsBaromVisibWave heightAir tempDewpointWater temp
2014-Jul-28 03:29N 53°32' W 003°10'1511.1
2014-Jul-28 02:07N 53°31' W 003°36'610.2
2014-Jul-28 01:33N 53°32' W 003°45'3 0.1
2014-Jul-26 22:32N 53°33' W 003°49'1514.9
2014-Jul-26 21:32N 53°32' W 003°23'14 2.2
2014-Jul-26 15:11N 53°27' W 003°01'6 9.5
2014-Jul-26 14:34N 53°31' W 003°07'1716.8
2014-Jul-26 13:32N 53°31' W 003°36'1818.3
2014-Jul-26 12:32N 53°34' W 004°07'65 7.0
2014-Jul-26 03:09N 53°23' W 005°55'1016.5
2014-Jul-26 02:33N 53°25' W 005°39'3617.2
2014-Jul-26 00:25N 53°33' W 004°39'1618.0
2014-Jul-25 23:33N 53°33' W 004°13'1716.7
2014-Jul-25 22:33N 53°33' W 003°45'1615.7
2014-Jul-25 21:33N 53°32' W 003°18'11 1.8
2014-Jul-25 15:06N 53°27' W 003°01'713.4
2014-Jul-25 14:33N 53°32' W 003°11'1818.5
2014-Jul-25 13:33N 53°31' W 003°42'1919.2
2014-Jul-25 12:33N 53°34' W 004°14'2419.3
2014-Jul-25 11:18N 53°34' W 004°54'1520.6
2014-Jul-25 10:33N 53°30' W 005°19'2121.2
2014-Jul-25 09:33N 53°23' W 005°53'8 1.4
2014-Jul-25 03:33N 53°20' W 006°06'1615.7
2014-Jul-25 02:33N 53°25' W 005°41'1616.2
2014-Jul-25 01:33N 53°29' W 005°15'2117.0
2014-Jul-25 00:17N 53°33' W 004°39'1318.7
2014-Jul-24 23:34N 53°33' W 004°17'1717.1
2014-Jul-24 22:33N 53°33' W 003°48'1616.1
2014-Jul-24 21:33N 53°32' W 003°21'13 6.0
2014-Jul-24 19:28N 53°27' W 003°01'0 0.0
2014-Jul-24 18:30N 53°27' W 003°01'0 0.0
2014-Jul-24 17:23N 53°27' W 003°01'7 2.5
2014-Jul-24 14:32N 53°32' W 003°11'1616.0
2014-Jul-24 13:33N 53°31' W 003°37'1817.7
2014-Jul-24 12:33N 53°33' W 004°07'3517.4
2014-Jul-24 10:33N 53°32' W 005°05'1919.2
2014-Jul-24 09:32N 53°26' W 005°36'1 0.2
2014-Jul-24 02:30N 53°25' W 005°38'5920.1
2014-Jul-23 23:33N 53°33' W 003°59'2020.0
2014-Jul-23 22:33N 53°32' W 003°26'9 1.2
2014-Jul-23 14:33N 53°32' W 003°10'1716.7
2014-Jul-23 13:34N 53°31' W 003°38'1817.8
2014-Jul-23 12:34N 53°34' W 004°08'1717.1
2014-Jul-23 11:33N 53°36' W 004°37'2118.0
2014-Jul-23 10:23N 53°31' W 005°11'2019.3
2014-Jul-23 09:21N 53°25' W 005°43'9 1.5
2014-Jul-23 03:15N 53°22' W 005°58'1114.6
2014-Jul-23 02:32N 53°25' W 005°40'1515.1
2014-Jul-23 01:34N 53°29' W 005°17'2217.4
2014-Jul-23 00:17N 53°33' W 004°40'2018.1
2014-Jul-22 23:09N 53°33' W 004°06'2817.1
2014-Jul-22 21:32N 53°32' W 003°19'12 2.2
2014-Jul-22 16:17N 53°27' W 003°01'0 0.6
2014-Jul-22 15:32N 53°27' W 003°01'6 5.6
2014-Jul-22 14:31N 53°31' W 003°07'1515.3
2014-Jul-22 13:33N 53°31' W 003°32'1616.4
2014-Jul-22 12:34N 53°33' W 003°59'1817.9
2014-Jul-22 11:34N 53°36' W 004°29'17 1.7
2014-Jul-22 01:16N 53°31' W 004°57'1616.7
2014-Jul-22 00:20N 53°34' W 004°31'1617.3
2014-Jul-21 23:23N 53°34' W 004°03'1417.2
2014-Jul-21 22:33N 53°33' W 003°40'1717.1
2014-Jul-21 21:33N 53°32' W 003°11'7 7.4
2014-Jul-21 20:33N 53°27' W 003°01'0 1.7
2014-Jul-21 20:18N 53°27' W 003°01'0 0.0
2014-Jul-21 19:33N 53°27' W 003°01'0 0.0
2014-Jul-21 18:32N 53°27' W 003°01'0 0.0
2014-Jul-21 17:26N 53°27' W 003°01'0 0.0
2014-Jul-21 16:28N 53°27' W 003°01'0 0.0
2014-Jul-21 13:21N 53°27' W 003°01'0 0.0
2014-Jul-21 11:26N 53°27' W 003°01'0 0.0
2014-Jul-21 10:17N 53°27' W 003°01'0 0.0
2014-Jul-21 09:31N 53°27' W 003°01'6 0.8
2014-Jul-21 02:27N 53°32' W 003°08'1718.8
2014-Jul-21 01:33N 53°31' W 003°36'1817.9
2014-Jul-21 00:33N 53°34' W 004°06'8 0.3
2014-Jul-19 23:33N 53°34' W 004°19'1616.4
2014-Jul-19 22:33N 53°34' W 003°51'1716.8
2014-Jul-19 21:34N 53°32' W 003°23'14 9.9
2014-Jul-19 20:08N 53°27' W 003°01'0 0.3
2014-Jul-19 18:24N 53°27' W 003°01'6 1.5
2014-Jul-19 14:25N 53°32' W 003°08'1720.2
2014-Jul-19 13:33N 53°31' W 003°37'1918.8
2014-Jul-19 12:33N 53°34' W 004°08'12 1.0
2014-Jul-19 00:08N 53°34' W 004°29'1514.6
2014-Jul-18 23:06N 53°33' W 004°03'915.9
2014-Jul-18 22:30N 53°33' W 003°47'1516.0
2014-Jul-18 21:33N 53°32' W 003°22'7 1.1
2014-Jul-18 14:33N 53°32' W 003°10'2020.0
2014-Jul-18 13:33N 53°31' W 003°43'1918.8
2014-Jul-18 12:33N 53°34' W 004°14'  

Dump ship's entire track history